LPPTLPMA

Guest
Details From LPPT - Lisboa
To LPMA - Madeira
Flight Number -
Tags decoded
Created
Modified
Stats Distance 570 nm / 1,056 km
Max Altitude 0 ft / 0 m
Waypoints 5
Social Downloads 1
Likes 0
Share VATSIM

Download

Looking for another format? Having issues loading an existing format? Contact us
Advertisement - Login to hide

Notes

Requested: LPPT BUSEN NAVIX T16 SNT LPMA

Route

LPPT BUSEN NAVIX T16 SNT LPMA

ID Type Via Altitude Latitude Longitude Leg Dist Tot Dist Heading (true) Name
O LPPT APT - 0 ft / 0 m 38.77856˚ -9.13515˚ - 0 nm - Lisboa
BUSEN FIX - 0 ft / 0 m 38.54500˚ -10.00000˚ 42 nm 42 nm 251° / 251° -
NAVIX FIX - 0 ft / 0 m 35.52056˚ -16.23444˚ 349 nm 392 nm 241° / 237° -
SNT VOR T16 (AWY-LO) 0 ft / 0 m 33.09028˚ -16.35056˚ 146 nm 538 nm 182° / 182° PORTO SANTO VOR-DME
O LPMA APT - 0 ft / 0 m 32.69770˚ -16.77445˚ 31 nm 570 nm 222° / 222° Madeira

Altitude Profile

Advertisement - Login to hide

Weather


0- 5 10 15 20 25 30 35+ Temperature / ° C

Clouds and Precipitation
Forecast for 2017-12-16 18:00 UTC. Updated 14 minutes ago

Ground ~20,000 ft ~40,000 ft Winds

LPPT

Details ICAO LPPT (LIS)
Name Lisboa
Region Portugal
Timezone Europe/Lisbon (UTC+0.0)
Stats Elevation 374 ft / 114 m (AMSL)
Location 38.778559° -9.135146°
Runways 2
Magnetic Variation 2.364° W

METAR

LPPT 161730Z 35011KT CAVOK 11/02 Q1024

Decode

TAF

TAF LPPT 161100Z 1612/1718 03010KT CAVOK BECMG 1616/1619 35008KT BECMG 1700/1702 03008KT BECMG 1716/1718 35008KT

Decode

Departure Runways

ID Width Length Bearing (true) Bearing (mag) Surface Threshold Offset Overrun Length
03 148 ft / 45 m 12,518 ft / 3,815 m 22.70° 25.06° Asphalt 296 ft / 90 m 0 ft / 0 m
17 148 ft / 45 m 7,922 ft / 2,415 m 168.38° 170.74° Asphalt 0 ft / 0 m 0 ft / 0 m
21 148 ft / 45 m 12,518 ft / 3,815 m 202.72° 205.08° Asphalt 1,969 ft / 600 m 0 ft / 0 m
35 148 ft / 45 m 7,922 ft / 2,415 m 348.38° 350.74° Asphalt 492 ft / 150 m 0 ft / 0 m

LPMA

Details ICAO LPMA (FNC)
Name Madeira
Region Portugal
Timezone Atlantic/Madeira (UTC+0.0)
Stats Elevation 192 ft / 59 m (AMSL)
Location 32.697704° -16.774449°
Runways 1
Magnetic Variation 4.981° W

METAR

LPMA 161730Z 01010KT 9000 -SHRA BKN013 SCT030 18/15 Q1024

Decode

TAF

TAF AMD TAF AMD LPMA 161605Z 1616/1712 03013KT 5000 -RADZ BR BKN013 TEMPO 1616/1618 9999 NSW SCT013 BKN030 PROB30 TEMPO 1616/1618 3000 +DZ SCT008 BKN012 FEW015TCU BECMG 1618/1621 9999 NSW SCT015 SCT030 PROB40 TEMPO 1618/1712 04018G28KT

Decode

Destination Runways

ID Width Length Bearing (true) Bearing (mag) Surface Threshold Offset Overrun Length
05 141 ft / 43 m 8,683 ft / 2,647 m 42.98° 47.96° Asphalt 472 ft / 144 m 0 ft / 0 m
23 141 ft / 43 m 8,683 ft / 2,647 m 222.99° 227.97° Asphalt 466 ft / 142 m 0 ft / 0 m

Popular Alternatives